Time;durP1;ratioP1;P1;durP2;ratioP2;P2;SDS_P1;SDS_P2;PMS_P1;PMS_P2;Temp;Humidity;BMP_temperature;BMP_pressure;BME280_temperature;BME280_humidity;BME280_pressure;Samples;Min_cycle;Max_cycle;Signal;HPM_P1;HPM_P2
2021/05/18 00:00:37;;;;;;;0.40;0.40;;;9.90;99.90;;;;;;5016806;28;20958;-78
2021/05/18 00:03:05;;;;;;;0.40;0.40;;;10.00;99.90;;;;;;5034469;28;20186;-78
2021/05/18 00:05:31;;;;;;;0.77;0.40;;;9.90;99.90;;;;;;5014685;28;21011;-80
2021/05/18 00:07:59;;;;;;;0.60;0.40;;;9.90;99.90;;;;;;5017709;28;20424;-77
2021/05/18 00:13:15;;;;;;;0.40;0.40;;;10.00;99.90;;;;;;5023824;28;20938;-77
2021/05/18 00:15:41;;;;;;;0.40;0.40;;;9.90;99.90;;;;;;5030205;28;20467;-79
2021/05/18 00:18:07;;;;;;;1.27;0.50;;;9.80;99.90;;;;;;5034706;28;20426;-79
2021/05/18 00:20:35;;;;;;;1.07;0.40;;;9.80;99.90;;;;;;5032840;28;20533;-78
2021/05/18 00:23:02;;;;;;;0.60;0.43;;;9.90;99.90;;;;;;5032023;28;20439;-79
2021/05/18 00:25:29;;;;;;;1.00;0.40;;;9.90;99.90;;;;;;5032640;28;20545;-79
2021/05/18 00:27:55;;;;;;;0.60;0.40;;;9.90;99.90;;;;;;5031233;28;20440;-79
2021/05/18 00:30:22;;;;;;;0.50;0.50;;;9.80;99.90;;;;;;5016006;28;20969;-81
2021/05/18 00:32:48;;;;;;;0.40;0.40;;;9.80;99.90;;;;;;5031217;28;20184;-79
2021/05/18 00:35:14;;;;;;;0.80;0.50;;;9.80;99.90;;;;;;5034160;28;20974;-79
2021/05/18 00:37:40;;;;;;;2.80;0.50;;;9.80;99.90;;;;;;5015611;28;20555;-79
2021/05/18 00:40:10;;;;;;;1.43;0.40;;;9.80;99.90;;;;;;5033779;28;20217;-80
2021/05/18 00:42:50;;;;;;;0.53;0.53;;;9.80;99.90;;;;;;5014643;28;20446;-76
2021/05/18 00:45:17;;;;;;;0.40;0.40;;;9.80;99.90;;;;;;5033826;28;20465;-77
2021/05/18 00:47:43;;;;;;;0.50;0.43;;;9.70;99.90;;;;;;5028032;28;20463;-78
2021/05/18 00:50:10;;;;;;;0.80;0.50;;;9.70;99.90;;;;;;5031735;28;20968;-79
2021/05/18 00:52:37;;;;;;;2.67;0.50;;;9.60;99.90;;;;;;5028626;28;20459;-76
2021/05/18 00:55:17;;;;;;;0.80;0.60;;;9.60;99.90;;;;;;5027234;28;20901;-80
2021/05/18 01:00:26;;;;;;;1.10;0.50;;;9.60;99.90;;;;;;5015632;28;20461;-79
2021/05/18 01:02:52;;;;;;;0.50;0.50;;;9.60;99.90;;;;;;5032451;28;20420;-79
2021/05/18 01:05:21;;;;;;;0.47;0.40;;;9.60;99.90;;;;;;5030094;28;20241;-78
2021/05/18 01:07:48;;;;;;;2.00;0.50;;;9.60;99.90;;;;;;5033304;28;20203;-79
2021/05/18 01:10:15;;;;;;;1.13;0.40;;;9.50;99.90;;;;;;5032539;28;20438;-80
2021/05/18 01:12:41;;;;;;;1.03;0.50;;;9.50;99.90;;;;;;5030868;28;20445;-78
2021/05/18 01:15:08;;;;;;;0.50;0.47;;;9.40;99.90;;;;;;5030936;28;20458;-79
2021/05/18 01:17:33;;;;;;;0.50;0.50;;;9.40;99.90;;;;;;5033309;28;20449;-77
2021/05/18 01:20:11;;;;;;;0.63;0.50;;;9.40;99.90;;;;;;5024706;28;20478;-78
2021/05/18 01:22:37;;;;;;;0.40;0.40;;;9.40;99.90;;;;;;5013459;28;20525;-76
2021/05/18 01:25:05;;;;;;;1.20;0.40;;;9.40;99.90;;;;;;5001785;28;20552;-78
2021/05/18 01:27:30;;;;;;;0.50;0.50;;;9.40;99.90;;;;;;5028900;28;20444;-80
2021/05/18 01:29:56;;;;;;;0.60;0.50;;;9.50;99.90;;;;;;5029576;28;20432;-79
2021/05/18 01:32:24;;;;;;;1.67;0.50;;;9.50;99.90;;;;;;5033158;28;20568;-78
2021/05/18 01:34:50;;;;;;;0.60;0.40;;;9.50;99.90;;;;;;5032789;28;20624;-79
2021/05/18 01:37:15;;;;;;;0.40;0.40;;;9.60;99.90;;;;;;5029828;28;20451;-79
2021/05/18 01:39:51;;;;;;;1.20;0.50;;;9.60;99.90;;;;;;5032625;28;20234;-80
2021/05/18 01:45:07;;;;;;;1.23;0.43;;;9.60;99.90;;;;;;5013162;28;20426;-78
2021/05/18 01:47:32;;;;;;;0.60;0.50;;;9.50;99.90;;;;;;5019779;28;20925;-79
2021/05/18 01:49:58;;;;;;;0.97;0.40;;;9.50;99.90;;;;;;5014548;28;20446;-77
2021/05/18 01:52:24;;;;;;;0.40;0.40;;;9.50;99.90;;;;;;5030312;28;20199;-80
2021/05/18 01:54:51;;;;;;;0.63;0.50;;;9.60;99.90;;;;;;5032012;28;20291;-79
2021/05/18 01:57:20;;;;;;;0.40;0.40;;;9.60;99.90;;;;;;5029765;28;20184;-77
2021/05/18 01:59:49;;;;;;;0.50;0.50;;;9.50;99.90;;;;;;5027767;28;20470;-80
2021/05/18 02:02:14;;;;;;;0.50;0.50;;;9.60;99.90;;;;;;5031074;28;20417;-79
2021/05/18 02:04:54;;;;;;;0.50;0.40;;;9.50;99.90;;;;;;5030863;28;20418;-78
2021/05/18 02:07:25;;;;;;;0.60;0.60;;;9.50;99.90;;;;;;5032339;28;20519;-77
2021/05/18 02:09:51;;;;;;;1.40;0.53;;;9.50;99.90;;;;;;5029164;28;20457;-77
2021/05/18 02:12:17;;;;;;;0.80;0.50;;;9.50;99.90;;;;;;5030105;28;20531;-79
2021/05/18 02:14:46;;;;;;;1.90;0.40;;;9.50;99.90;;;;;;5026779;28;20445;-78
2021/05/18 02:17:29;;;;;;;2.90;0.50;;;9.50;99.90;;;;;;5031443;28;20428;-77
2021/05/18 02:25:18;;;;;;;0.50;0.40;;;9.40;99.90;;;;;;5029693;28;21032;-78
2021/05/18 02:27:45;;;;;;;1.10;0.40;;;9.30;99.90;;;;;;5029316;28;20442;-78
2021/05/18 02:30:13;;;;;;;0.70;0.60;;;9.30;99.90;;;;;;5030939;28;20499;-77
2021/05/18 02:32:39;;;;;;;0.80;0.40;;;9.30;99.90;;;;;;5029229;28;20448;-79
2021/05/18 02:35:07;;;;;;;0.60;0.60;;;9.20;99.90;;;;;;5012197;28;20880;-79
2021/05/18 02:37:32;;;;;;;2.60;0.60;;;9.20;99.90;;;;;;5014042;28;20443;-79
2021/05/18 02:39:58;;;;;;;1.10;0.40;;;9.10;99.90;;;;;;5030011;28;21151;-78
2021/05/18 02:42:24;;;;;;;0.80;0.50;;;9.10;99.90;;;;;;5013353;28;20189;-78
2021/05/18 02:44:57;;;;;;;0.60;0.60;;;9.10;99.90;;;;;;5031553;28;20760;-79
2021/05/18 02:50:07;;;;;;;0.80;0.50;;;9.20;99.90;;;;;;5029807;28;20818;-78
2021/05/18 02:52:34;;;;;;;0.40;0.40;;;9.20;99.90;;;;;;5027402;28;20517;-77
2021/05/18 02:55:00;;;;;;;0.50;0.50;;;9.30;99.90;;;;;;5031475;28;20485;-78
2021/05/18 02:57:36;;;;;;;0.60;0.50;;;9.30;99.90;;;;;;5028621;28;20447;-80
2021/05/18 03:00:09;;;;;;;0.40;0.40;;;9.30;99.90;;;;;;5026826;28;20469;-78
2021/05/18 03:02:35;;;;;;;0.50;0.50;;;9.40;99.90;;;;;;5029226;28;20458;-75
2021/05/18 03:05:02;;;;;;;0.60;0.60;;;9.30;99.90;;;;;;5031359;28;20436;-77
2021/05/18 03:07:27;;;;;;;0.40;0.40;;;9.30;99.90;;;;;;5013999;28;20225;-78
2021/05/18 03:09:53;;;;;;;2.00;0.60;;;9.30;99.90;;;;;;5031618;28;20414;-78
2021/05/18 03:12:19;;;;;;;1.83;0.47;;;9.30;99.90;;;;;;5011760;28;20184;-79
2021/05/18 03:14:44;;;;;;;0.90;0.80;;;9.30;99.90;;;;;;5024802;28;20196;-77
2021/05/18 03:17:10;;;;;;;0.40;0.40;;;9.30;99.90;;;;;;5031188;28;20186;-77
2021/05/18 03:19:35;;;;;;;0.50;0.40;;;9.30;99.90;;;;;;5015985;28;20219;-78
2021/05/18 03:22:01;;;;;;;0.50;0.50;;;9.30;99.90;;;;;;5031139;28;20195;-77
2021/05/18 03:24:26;;;;;;;0.40;0.40;;;9.30;99.90;;;;;;5026289;28;20552;-77
2021/05/18 03:26:52;;;;;;;1.60;0.40;;;9.30;99.90;;;;;;5030750;28;20195;-78
2021/05/18 03:29:32;;;;;;;0.60;0.60;;;9.30;99.90;;;;;;5021163;28;20181;-80
2021/05/18 03:34:42;;;;;;;0.83;0.40;;;9.30;99.90;;;;;;5031695;28;20513;-78
2021/05/18 03:37:16;;;;;;;0.40;0.40;;;9.30;99.90;;;;;;5032590;28;20438;-80
2021/05/18 03:39:43;;;;;;;0.50;0.50;;;9.20;99.90;;;;;;5032713;28;20272;-77
2021/05/18 03:42:16;;;;;;;0.50;0.43;;;9.20;99.90;;;;;;5034764;28;20940;-76
2021/05/18 03:45:02;;;;;;;0.40;0.40;;;9.20;99.90;;;;;;5030740;28;20899;-76
2021/05/18 04:12:10;;;;;;;0.60;0.50;;;9.00;99.90;;;;;;5016197;28;20870;-78
2021/05/18 04:17:25;;;;;;;0.50;0.40;;;9.10;99.90;;;;;;5031706;28;20430;-74
2021/05/18 04:20:09;;;;;;;1.57;0.50;;;9.20;99.90;;;;;;5030941;28;20505;-76
2021/05/18 04:52:07;;;;;;;1.03;0.73;;;9.80;99.90;;;;;;5032667;28;20407;-76
2021/05/18 05:00:25;;;;;;;0.70;0.53;;;9.90;99.90;;;;;;5028398;28;20517;-76
2021/05/18 05:15:46;;;;;;;0.50;0.50;;;10.00;99.90;;;;;;5031025;28;20591;-72
2021/05/18 05:18:12;;;;;;;1.53;0.50;;;10.10;99.90;;;;;;5029971;28;20450;-73
2021/05/18 05:20:39;;;;;;;0.60;0.60;;;10.10;99.90;;;;;;5032544;28;20798;-72
2021/05/18 05:23:05;;;;;;;0.70;0.70;;;10.20;99.90;;;;;;5027333;28;20445;-72
2021/05/18 05:25:31;;;;;;;1.23;0.60;;;10.20;99.90;;;;;;5014043;28;20451;-73
2021/05/18 05:27:56;;;;;;;1.23;0.60;;;10.20;99.90;;;;;;5025423;28;20186;-72
2021/05/18 05:30:22;;;;;;;1.20;0.70;;;10.20;99.90;;;;;;5028553;28;20231;-73
2021/05/18 05:32:48;;;;;;;0.70;0.70;;;10.20;99.90;;;;;;5044875;28;20524;-73
2021/05/18 05:35:14;;;;;;;4.83;0.60;;;10.10;99.90;;;;;;5029082;28;20480;-73
2021/05/18 05:37:40;;;;;;;4.23;0.60;;;10.20;99.90;;;;;;5031661;28;20179;-73
2021/05/18 05:40:06;;;;;;;5.43;0.60;;;10.10;99.90;;;;;;5029792;28;20503;-73
2021/05/18 05:42:32;;;;;;;1.47;0.50;;;10.10;99.90;;;;;;5029776;28;20187;-73
2021/05/18 05:44:58;;;;;;;0.97;0.60;;;10.10;99.90;;;;;;5027982;28;20964;-73
2021/05/18 05:47:24;;;;;;;2.00;0.50;;;10.10;99.90;;;;;;5029298;28;20213;-72
2021/05/18 05:49:50;;;;;;;1.53;0.70;;;10.10;99.90;;;;;;5025575;28;20688;-73
2021/05/18 05:52:20;;;;;;;0.80;0.60;;;10.10;99.90;;;;;;5030922;28;20428;-73
2021/05/18 05:54:46;;;;;;;1.10;0.70;;;10.20;99.90;;;;;;5028759;28;20472;-73
2021/05/18 05:57:12;;;;;;;2.00;0.67;;;10.20;99.90;;;;;;5028133;28;20434;-73
2021/05/18 05:59:38;;;;;;;1.67;0.83;;;10.30;99.90;;;;;;5028462;28;20835;-72
2021/05/18 06:02:04;;;;;;;4.20;0.60;;;10.30;99.90;;;;;;5028532;28;20446;-72
2021/05/18 06:04:30;;;;;;;0.60;0.60;;;10.20;99.90;;;;;;5030209;28;20214;-70
2021/05/18 06:06:56;;;;;;;1.67;0.60;;;10.10;99.90;;;;;;5020916;28;20958;-72
2021/05/18 06:09:23;;;;;;;1.00;0.90;;;10.10;99.90;;;;;;5028932;28;20490;-72
2021/05/18 06:11:57;;;;;;;1.27;0.70;;;10.00;99.90;;;;;;5018717;28;20436;-72
2021/05/18 06:49:59;;;;;;;0.70;0.70;;;11.50;99.90;;;;;;5025686;28;20513;-72
2021/05/18 06:52:25;;;;;;;0.70;0.60;;;11.70;99.90;;;;;;5011345;28;20440;-72
2021/05/18 06:54:50;;;;;;;0.90;0.70;;;11.80;99.90;;;;;;5029966;28;20478;-73
2021/05/18 06:57:16;;;;;;;1.13;0.50;;;11.90;99.90;;;;;;5025624;28;20272;-72
2021/05/18 07:02:26;;;;;;;0.40;0.40;;;12.00;99.90;;;;;;5027384;28;20239;-73
2021/05/18 07:04:54;;;;;;;0.50;0.50;;;11.90;99.90;;;;;;5014474;28;20873;-73
2021/05/18 07:07:22;;;;;;;0.57;0.57;;;11.90;99.90;;;;;;5015992;28;20437;-71
2021/05/18 07:09:47;;;;;;;1.40;0.50;;;11.80;99.90;;;;;;5033706;28;20427;-72
2021/05/18 07:12:13;;;;;;;2.20;0.60;;;11.80;99.90;;;;;;5033009;28;20905;-73
2021/05/18 07:14:38;;;;;;;4.90;0.57;;;11.70;99.90;;;;;;5028742;28;20186;-73
2021/05/18 07:17:04;;;;;;;2.73;0.60;;;11.70;99.90;;;;;;5034171;28;20198;-73
2021/05/18 07:19:30;;;;;;;1.30;0.50;;;11.70;99.90;;;;;;5031698;28;20193;-73
2021/05/18 07:21:55;;;;;;;2.10;0.60;;;11.90;99.90;;;;;;5015440;28;20178;-72
2021/05/18 07:24:25;;;;;;;2.10;0.60;;;12.10;99.90;;;;;;5031128;28;20193;-73
2021/05/18 07:26:51;;;;;;;0.60;0.60;;;12.30;99.90;;;;;;5032158;28;20212;-73
2021/05/18 07:29:17;;;;;;;2.43;0.63;;;12.70;99.90;;;;;;5030884;28;20448;-73
2021/05/18 07:31:43;;;;;;;1.07;0.60;;;12.90;99.90;;;;;;5033172;28;20240;-73
2021/05/18 07:34:09;;;;;;;0.80;0.80;;;13.10;99.90;;;;;;5033243;28;20463;-72
2021/05/18 07:36:35;;;;;;;0.80;0.70;;;13.30;99.90;;;;;;5029496;28;20692;-73
2021/05/18 07:39:01;;;;;;;0.50;0.50;;;13.40;99.90;;;;;;5033600;28;20420;-73
2021/05/18 07:41:26;;;;;;;2.70;0.90;;;13.40;99.90;;;;;;5021676;28;20221;-73
2021/05/18 07:43:52;;;;;;;0.60;0.60;;;13.30;99.90;;;;;;5027948;28;20182;-73
2021/05/18 07:46:19;;;;;;;1.10;0.70;;;13.20;99.90;;;;;;5031514;28;20311;-73
2021/05/18 07:49:08;;;;;;;1.27;0.70;;;12.90;99.90;;;;;;5028715;28;20217;-72
2021/05/18 07:51:51;;;;;;;0.63;0.63;;;12.70;99.90;;;;;;5030850;28;20451;-72
2021/05/18 07:59:52;;;;;;;0.80;0.80;;;12.40;99.90;;;;;;5032283;28;20498;-72
2021/05/18 08:02:35;;;;;;;1.80;0.83;;;12.30;99.90;;;;;;5031436;28;20437;-71
2021/05/18 08:05:20;;;;;;;2.30;0.80;;;12.30;99.90;;;;;;5014260;28;20434;-71
2021/05/18 08:07:46;;;;;;;9.80;0.90;;;12.30;99.90;;;;;;5031505;28;20397;-71
2021/05/18 08:10:16;;;;;;;2.80;1.03;;;12.30;99.90;;;;;;5031201;28;20440;-71
2021/05/18 08:12:42;;;;;;;1.20;0.70;;;12.40;99.90;;;;;;5031421;28;20174;-72
2021/05/18 08:15:32;;;;;;;2.03;0.90;;;12.60;99.90;;;;;;5031142;28;20530;-70
2021/05/18 08:18:33;;;;;;;5.10;1.27;;;12.70;99.90;;;;;;4995765;28;20447;-71
2021/05/18 10:36:30;;;;;;;4.33;0.80;;;17.80;99.90;;;;;;5030549;28;20457;-72
2021/05/18 10:39:14;;;;;;;1.77;0.50;;;17.90;99.90;;;;;;5030838;28;20248;-71
2021/05/18 10:41:39;;;;;;;2.53;0.50;;;17.50;99.90;;;;;;5034268;28;20496;-72
2021/05/18 10:44:06;;;;;;;0.50;0.50;;;16.90;99.90;;;;;;5026153;28;20471;-72
2021/05/18 10:46:54;;;;;;;2.10;0.60;;;17.30;99.90;;;;;;5034447;28;20198;-72
2021/05/18 10:49:36;;;;;;;0.83;0.60;;;18.20;99.90;;;;;;5030503;28;20430;-71
2021/05/18 10:52:08;;;;;;;1.93;0.60;;;19.50;99.90;;;;;;5014851;28;20748;-72
2021/05/18 10:54:43;;;;;;;1.37;0.70;;;20.20;99.90;;;;;;5023017;28;20443;-71
2021/05/18 10:57:19;;;;;;;1.23;0.70;;;19.90;99.90;;;;;;5015566;28;20420;-72
2021/05/18 10:59:49;;;;;;;0.90;0.50;;;19.40;99.90;;;;;;5025384;28;20436;-72
2021/05/18 11:02:48;;;;;;;0.60;0.50;;;18.90;99.90;;;;;;5034211;28;20538;-71
2021/05/18 11:05:15;;;;;;;3.57;0.60;;;18.30;99.90;;;;;;4989304;28;21059;-71
2021/05/18 11:07:45;;;;;;;4.37;0.63;;;17.70;99.90;;;;;;5032112;28;20463;-72
2021/05/18 11:10:15;;;;;;;1.70;0.63;;;17.90;99.90;;;;;;5032046;28;20452;-72
2021/05/18 11:12:45;;;;;;;1.30;0.70;;;18.40;99.90;;;;;;5034139;28;20432;-72
2021/05/18 11:15:13;;;;;;;1.43;0.50;;;19.10;99.90;;;;;;5032430;28;20488;-71
2021/05/18 11:17:52;;;;;;;3.50;0.70;;;19.00;99.90;;;;;;5030839;28;20440;-72
2021/05/18 11:20:35;;;;;;;1.63;0.60;;;18.70;99.90;;;;;;5034579;28;20488;-73
2021/05/18 11:23:23;;;;;;;1.17;0.70;;;18.50;99.90;;;;;;5033128;28;20509;-72
2021/05/18 11:25:54;;;;;;;2.30;0.60;;;18.30;99.90;;;;;;5034588;28;20420;-70
2021/05/18 11:28:21;;;;;;;1.87;0.60;;;18.20;99.90;;;;;;5028835;28;20467;-70
2021/05/18 11:30:50;;;;;;;2.47;0.90;;;18.20;99.90;;;;;;5031733;28;20953;-71
2021/05/18 11:33:16;;;;;;;1.70;0.90;;;18.20;99.90;;;;;;5022618;28;20471;-72
2021/05/18 11:35:42;;;;;;;1.33;0.50;;;18.40;99.90;;;;;;5033474;28;20455;-73
2021/05/18 11:38:16;;;;;;;2.03;0.67;;;18.60;99.90;;;;;;5031880;28;20444;-71
2021/05/18 11:40:46;;;;;;;2.10;1.33;;;18.20;99.90;;;;;;5030527;28;20281;-71
2021/05/18 11:43:13;;;;;;;1.87;1.07;;;17.60;99.90;;;;;;5031454;28;22167;-71
2021/05/18 11:45:39;;;;;;;1.90;0.50;;;17.20;99.90;;;;;;5033524;28;20443;-72
2021/05/18 11:48:12;;;;;;;1.13;0.60;;;16.90;99.90;;;;;;5031560;28;20437;-72
2021/05/18 11:50:38;;;;;;;3.90;0.73;;;16.60;99.90;;;;;;5038322;28;20260;-72
2021/05/18 11:53:03;;;;;;;0.40;0.40;;;16.20;99.90;;;;;;5024942;28;20511;-72
2021/05/18 11:55:32;;;;;;;1.70;0.50;;;16.00;99.90;;;;;;5032032;28;20271;-71
2021/05/18 11:57:58;;;;;;;0.90;0.40;;;15.80;99.90;;;;;;5032746;28;20178;-71
2021/05/18 12:00:32;;;;;;;1.50;0.50;;;15.50;99.90;;;;;;5027869;28;20464;-71
2021/05/18 12:03:05;;;;;;;3.40;0.70;;;15.40;99.90;;;;;;5033441;28;20419;-71
2021/05/18 12:05:31;;;;;;;4.00;0.40;;;15.40;99.90;;;;;;5030685;28;20494;-71
2021/05/18 12:07:56;;;;;;;1.07;0.60;;;15.60;99.90;;;;;;5033652;28;20455;-71
2021/05/18 12:10:35;;;;;;;0.93;0.50;;;15.70;99.90;;;;;;5033319;28;21010;-71
2021/05/18 12:13:01;;;;;;;0.60;0.50;;;15.90;99.90;;;;;;5024779;28;20273;-71
2021/05/18 12:15:28;;;;;;;2.40;0.40;;;16.20;99.90;;;;;;5032539;28;20452;-71
2021/05/18 12:17:56;;;;;;;2.20;0.60;;;16.50;99.90;;;;;;5029754;28;20470;-71
2021/05/18 12:20:22;;;;;;;4.57;0.50;;;16.60;99.90;;;;;;5033014;28;20888;-72
2021/05/18 12:22:50;;;;;;;2.20;0.50;;;16.70;99.90;;;;;;5030691;28;20433;-71
2021/05/18 12:25:35;;;;;;;1.93;0.50;;;16.90;99.90;;;;;;5030482;28;20811;-72
2021/05/18 12:28:09;;;;;;;1.13;0.50;;;17.20;99.90;;;;;;5030363;28;20472;-72
2021/05/18 12:30:36;;;;;;;3.60;0.50;;;17.20;99.90;;;;;;5014915;28;20435;-71
2021/05/18 12:33:02;;;;;;;2.10;0.50;;;17.10;99.90;;;;;;5030979;28;20413;-71
2021/05/18 12:35:28;;;;;;;1.00;0.60;;;17.30;99.90;;;;;;5030027;28;20836;-71
2021/05/18 12:37:55;;;;;;;0.93;0.40;;;17.00;99.90;;;;;;5032695;28;20212;-71
2021/05/18 12:40:30;;;;;;;0.90;0.60;;;16.80;99.90;;;;;;5028535;28;20712;-71
2021/05/18 12:43:14;;;;;;;0.87;0.70;;;16.60;99.90;;;;;;5033560;28;20411;-71
2021/05/18 12:45:41;;;;;;;0.90;0.50;;;16.40;99.90;;;;;;5029278;28;20830;-71
2021/05/18 12:48:08;;;;;;;0.50;0.43;;;16.10;99.90;;;;;;5030426;28;21006;-71
2021/05/18 12:50:47;;;;;;;2.13;0.90;;;15.90;99.90;;;;;;5023212;28;20442;-72
2021/05/18 12:53:26;;;;;;;1.07;0.50;;;16.00;99.90;;;;;;5032058;28;20463;-70
2021/05/18 12:55:52;;;;;;;4.33;0.70;;;16.40;99.90;;;;;;5030056;28;20452;-70
2021/05/18 12:58:26;;;;;;;1.47;0.70;;;16.70;99.90;;;;;;5027797;28;21056;-71
2021/05/18 13:01:03;;;;;;;1.03;0.50;;;16.90;99.90;;;;;;5013536;28;20467;-71
2021/05/18 13:03:28;;;;;;;1.87;0.80;;;17.00;99.90;;;;;;5031804;28;20539;-70
2021/05/18 13:05:55;;;;;;;3.07;0.83;;;17.00;99.90;;;;;;5013852;28;20965;-71
2021/05/18 13:08:23;;;;;;;1.33;0.70;;;17.00;99.90;;;;;;5029044;28;20182;-71
2021/05/18 13:10:55;;;;;;;1.87;0.63;;;17.20;99.90;;;;;;5031674;28;20436;-71
2021/05/18 13:13:23;;;;;;;0.40;0.40;;;17.30;99.90;;;;;;5027683;28;20433;-72
2021/05/18 13:15:49;;;;;;;0.60;0.50;;;17.00;99.90;;;;;;5027479;28;20445;-71
2021/05/18 13:18:16;;;;;;;0.70;0.50;;;16.70;99.90;;;;;;5028697;28;20555;-71
2021/05/18 13:20:42;;;;;;;0.60;0.60;;;16.70;99.90;;;;;;5031193;28;20459;-71
2021/05/18 13:23:12;;;;;;;1.37;0.40;;;16.80;99.90;;;;;;5010831;28;20980;-71
2021/05/18 13:28:22;;;;;;;1.30;0.50;;;17.30;99.90;;;;;;5030174;28;20467;-71
2021/05/18 13:30:48;;;;;;;1.77;0.53;;;17.40;99.90;;;;;;5012702;28;20973;-71
2021/05/18 13:33:14;;;;;;;0.80;0.50;;;17.30;99.90;;;;;;5031603;28;20249;-71
2021/05/18 13:35:40;;;;;;;1.60;0.60;;;17.40;99.90;;;;;;5012811;28;20229;-71
2021/05/18 13:38:05;;;;;;;1.77;0.40;;;17.30;99.90;;;;;;5031270;28;20273;-71
2021/05/18 13:40:31;;;;;;;0.87;0.57;;;17.10;99.90;;;;;;5003412;28;20210;-71
2021/05/18 13:42:57;;;;;;;0.60;0.40;;;17.10;99.90;;;;;;5031101;28;20193;-71
2021/05/18 13:45:27;;;;;;;2.20;0.50;;;16.90;99.90;;;;;;5027085;28;20210;-72
2021/05/18 13:47:55;;;;;;;1.00;0.50;;;17.00;99.90;;;;;;5029969;28;20178;-71
2021/05/18 13:50:22;;;;;;;0.40;0.40;;;16.80;99.90;;;;;;5027585;28;20432;-71
2021/05/18 13:52:47;;;;;;;1.77;0.43;;;16.50;99.90;;;;;;5029934;28;20436;-71
2021/05/18 13:55:14;;;;;;;1.10;0.60;;;16.40;99.90;;;;;;5031405;28;20435;-70
2021/05/18 13:57:39;;;;;;;2.20;0.50;;;16.30;99.90;;;;;;5029211;28;20186;-71
2021/05/18 14:00:09;;;;;;;2.83;0.83;;;15.70;99.90;;;;;;5028927;28;20981;-72
2021/05/18 14:02:37;;;;;;;4.73;0.80;;;14.60;99.90;;;;;;5028038;28;20545;-71
2021/05/18 14:05:04;;;;;;;4.07;0.70;;;12.90;99.90;;;;;;5031173;28;20516;-69
2021/05/18 14:10:32;;;;;;;5.67;0.70;;;11.30;99.90;;;;;;5029460;28;20418;-72
2021/05/18 14:12:57;;;;;;;0.77;0.77;;;11.00;99.90;;;;;;5028172;28;20871;-71
2021/05/18 14:15:23;;;;;;;1.33;0.60;;;10.80;99.90;;;;;;5025137;28;20854;-73
2021/05/18 14:17:48;;;;;;;2.90;0.90;;;10.80;99.90;;;;;;5031153;28;20331;-73
2021/05/18 14:20:14;;;;;;;1.50;0.60;;;11.00;99.90;;;;;;5012759;28;20625;-72
2021/05/18 14:22:40;;;;;;;4.43;0.70;;;11.40;99.90;;;;;;5030015;28;20656;-71
2021/05/18 14:25:06;;;;;;;2.23;0.80;;;11.80;99.90;;;;;;5027161;28;20215;-71
2021/05/18 14:27:33;;;;;;;0.90;0.67;;;12.20;99.90;;;;;;5013076;28;20186;-72
2021/05/18 14:29:59;;;;;;;1.00;0.67;;;12.60;99.90;;;;;;5026255;28;20445;-72
2021/05/18 14:32:25;;;;;;;1.70;0.53;;;12.90;99.90;;;;;;5029992;28;20502;-72
2021/05/18 14:34:52;;;;;;;8.03;0.70;;;13.20;99.90;;;;;;5030269;28;20658;-72
2021/05/18 14:37:19;;;;;;;4.00;0.50;;;13.40;99.90;;;;;;5026953;28;20461;-71
2021/05/18 14:40:04;;;;;;;1.00;0.67;;;13.50;99.90;;;;;;5030187;28;20845;-71
2021/05/18 14:45:18;;;;;;;0.50;0.40;;;13.70;99.90;;;;;;5028491;28;20460;-73
2021/05/18 14:55:58;;;;;;;3.23;0.60;;;14.00;99.90;;;;;;5030117;28;20467;-72
2021/05/18 14:58:24;;;;;;;1.97;0.60;;;14.00;99.90;;;;;;5026980;28;20475;-71
2021/05/18 15:00:49;;;;;;;4.33;0.60;;;14.00;99.90;;;;;;5009022;28;20702;-71
2021/05/18 15:03:15;;;;;;;2.97;0.50;;;14.00;99.90;;;;;;5030544;28;20257;-73
2021/05/18 15:05:40;;;;;;;0.70;0.50;;;14.10;99.90;;;;;;5028316;28;20211;-72
2021/05/18 15:08:07;;;;;;;0.60;0.50;;;14.20;99.90;;;;;;5012260;28;20170;-72
2021/05/18 15:10:34;;;;;;;1.57;0.70;;;14.10;99.90;;;;;;5025734;28;20182;-72
2021/05/18 15:13:00;;;;;;;1.23;0.50;;;14.10;99.90;;;;;;5029984;28;20421;-72
2021/05/18 15:15:26;;;;;;;0.93;0.50;;;14.00;99.90;;;;;;5025952;28;20565;-72
2021/05/18 15:17:55;;;;;;;0.93;0.57;;;14.10;99.90;;;;;;5030487;28;20452;-72
2021/05/18 15:20:20;;;;;;;0.40;0.40;;;14.20;99.90;;;;;;5010214;28;20904;-72
2021/05/18 15:22:46;;;;;;;0.40;0.40;;;14.20;99.90;;;;;;5027706;28;20444;-72
2021/05/18 15:25:11;;;;;;;0.77;0.40;;;14.20;99.90;;;;;;5030417;28;20277;-72
2021/05/18 15:27:37;;;;;;;4.20;0.40;;;14.20;99.90;;;;;;5031573;28;20182;-72
2021/05/18 15:30:07;;;;;;;0.63;0.40;;;14.30;99.90;;;;;;5031128;28;20193;-71
2021/05/18 15:32:32;;;;;;;0.97;0.47;;;14.30;99.90;;;;;;5029675;28;20240;-72
2021/05/18 15:34:58;;;;;;;1.77;0.77;;;14.30;99.90;;;;;;5033688;28;20468;-70
2021/05/18 15:37:23;;;;;;;1.50;0.50;;;14.40;99.90;;;;;;5032207;28;20185;-72
2021/05/18 15:39:49;;;;;;;1.93;0.60;;;14.40;99.90;;;;;;5033341;28;20205;-72
2021/05/18 15:42:14;;;;;;;0.50;0.50;;;14.30;99.90;;;;;;5014324;28;20190;-71
2021/05/18 15:44:40;;;;;;;2.50;0.73;;;14.10;99.90;;;;;;5028808;28;20276;-71
2021/05/18 15:47:06;;;;;;;2.03;0.70;;;14.00;99.90;;;;;;5016102;28;20213;-73
2021/05/18 15:49:31;;;;;;;1.77;0.50;;;13.80;99.90;;;;;;5027254;28;20252;-72
2021/05/18 15:51:58;;;;;;;0.50;0.50;;;13.80;99.90;;;;;;5031644;28;20178;-72
2021/05/18 15:54:24;;;;;;;1.00;0.60;;;13.80;99.90;;;;;;5030309;28;20190;-72
2021/05/18 15:56:50;;;;;;;0.80;0.50;;;13.90;99.90;;;;;;5020731;28;20449;-71
2021/05/18 15:59:16;;;;;;;0.70;0.70;;;13.90;99.90;;;;;;5018842;28;20537;-72
2021/05/18 16:01:42;;;;;;;0.50;0.50;;;13.80;99.90;;;;;;5015595;28;21023;-71
2021/05/18 16:04:09;;;;;;;3.10;0.70;;;13.70;99.90;;;;;;5011024;28;20436;-72
2021/05/18 16:06:39;;;;;;;3.10;1.13;;;13.40;99.90;;;;;;5021190;28;20460;-72
2021/05/18 16:09:05;;;;;;;3.13;1.07;;;13.20;99.90;;;;;;5026319;28;20493;-71
2021/05/18 16:11:31;;;;;;;1.00;0.60;;;12.60;99.90;;;;;;5021462;28;20535;-71
2021/05/18 16:13:57;;;;;;;0.90;0.70;;;12.20;99.90;;;;;;5020884;28;20578;-72
2021/05/18 16:16:23;;;;;;;1.70;0.60;;;12.00;99.90;;;;;;5009485;28;20459;-72
2021/05/18 16:18:49;;;;;;;2.77;0.60;;;11.70;99.90;;;;;;5029503;28;20212;-72
2021/05/18 16:21:18;;;;;;;1.30;0.60;;;11.70;99.90;;;;;;5013736;28;20997;-72
2021/05/18 16:23:47;;;;;;;0.93;0.50;;;11.60;99.90;;;;;;5023378;28;20192;-72
2021/05/18 16:26:13;;;;;;;0.57;0.57;;;11.80;99.90;;;;;;5012985;28;20974;-72
2021/05/18 16:28:38;;;;;;;1.10;0.80;;;12.00;99.90;;;;;;5022557;28;20455;-72
2021/05/18 16:31:07;;;;;;;2.77;1.83;;;12.20;99.90;;;;;;5029446;28;20199;-72
2021/05/18 16:33:33;;;;;;;1.83;0.63;;;12.30;99.90;;;;;;5014208;28;20802;-70
2021/05/18 16:35:58;;;;;;;1.80;0.50;;;12.30;99.90;;;;;;5013778;28;20543;-72
2021/05/18 16:38:24;;;;;;;3.40;0.50;;;12.20;99.90;;;;;;5031785;28;20174;-73
2021/05/18 16:40:53;;;;;;;0.87;0.50;;;12.20;99.90;;;;;;5007179;28;20213;-74
2021/05/18 16:43:20;;;;;;;1.83;0.50;;;12.10;99.90;;;;;;5030143;28;20640;-72
2021/05/18 16:45:45;;;;;;;0.83;0.70;;;12.10;99.90;;;;;;5009113;28;20457;-72
2021/05/18 16:48:11;;;;;;;2.00;0.50;;;12.10;99.90;;;;;;5021607;28;20771;-72
2021/05/18 16:50:36;;;;;;;1.00;0.60;;;12.10;99.90;;;;;;5026530;28;20189;-73
2021/05/18 16:53:02;;;;;;;0.90;0.53;;;12.00;99.90;;;;;;5025836;28;20596;-73
2021/05/18 16:55:28;;;;;;;3.83;0.60;;;12.10;99.90;;;;;;5028557;28;20242;-73
2021/05/18 16:57:53;;;;;;;3.60;0.60;;;12.10;99.90;;;;;;5029045;28;20570;-73
2021/05/18 17:00:19;;;;;;;0.70;0.70;;;12.20;99.90;;;;;;5003157;28;20296;-73
2021/05/18 17:02:45;;;;;;;1.43;0.80;;;12.20;99.90;;;;;;5024981;28;20200;-72
2021/05/18 17:05:10;;;;;;;2.20;1.03;;;12.10;99.90;;;;;;5029101;28;20449;-73
2021/05/18 17:07:36;;;;;;;5.00;2.10;;;12.20;99.90;;;;;;5036487;28;20674;-73
2021/05/18 17:10:04;;;;;;;1.23;0.90;;;12.20;99.90;;;;;;5010321;28;20192;-73
2021/05/18 17:12:30;;;;;;;0.60;0.57;;;12.20;99.90;;;;;;5028287;28;20190;-73
2021/05/18 17:14:56;;;;;;;1.10;1.00;;;12.20;99.90;;;;;;5026512;28;20520;-72
2021/05/18 17:17:21;;;;;;;1.30;0.70;;;12.10;99.90;;;;;;5037693;28;20235;-72
2021/05/18 17:19:47;;;;;;;1.87;0.80;;;12.00;99.90;;;;;;5024459;28;20228;-73
2021/05/18 17:22:17;;;;;;;0.93;0.70;;;11.90;99.90;;;;;;5009726;28;20943;-73
2021/05/18 17:24:43;;;;;;;0.70;0.60;;;11.70;99.90;;;;;;5025134;28;20485;-73
2021/05/18 17:27:09;;;;;;;0.80;0.50;;;11.50;99.90;;;;;;5018515;28;20431;-72
2021/05/18 17:29:35;;;;;;;3.80;0.50;;;11.30;99.90;;;;;;5005256;28;20182;-73
2021/05/18 17:32:01;;;;;;;3.30;0.53;;;11.00;99.90;;;;;;5028210;28;20627;-72
2021/05/18 17:34:27;;;;;;;0.50;0.50;;;10.80;99.90;;;;;;5038921;28;20683;-74
2021/05/18 17:36:53;;;;;;;7.07;0.60;;;10.60;99.90;;;;;;5019941;28;20469;-72
2021/05/18 17:39:20;;;;;;;1.97;0.53;;;10.50;99.90;;;;;;5040469;28;20184;-74
2021/05/18 17:41:47;;;;;;;0.60;0.60;;;10.40;99.90;;;;;;5038493;28;20713;-73
2021/05/18 17:44:12;;;;;;;3.63;0.60;;;10.30;99.90;;;;;;5027939;28;20445;-72
2021/05/18 17:46:39;;;;;;;0.70;0.70;;;10.10;99.90;;;;;;5009270;28;20541;-72